Ana Sayfa
METAR-TAF:

METAR-TAF

Havaalanları :

Yellowstone Lake, Wyoming, Amerika Birleşik Devletleri

Enlem: 44-32-40N, Boylam: 110-25-16W, yükseklik: 2388 m

Güncel hava durumu gözlemi

Rapor saat 21:56 UTC de 34 dakika önce yapıldı.
Sakin rüzgar
Sıcaklık -1°C
Nem 86%
Basınç 1024 hPa

METAR: KP60 172156Z AUTO 00000KT M01/M03 A3025 RMK AO1 SLP255 T10111028

Saat: 15:30 (22:30 UTC)


TAF: eksik

4.000'den fazla havaalanı için hava durumu gözlemleri ve tahminleri (METAR ve TAF raporları).

Kullanılabilir istasyonlar harita üzerinde sarı ve kırmızı noktalarla gösterilir.

İstasyonun adını görmek için fareyi noktanın üzerinde gezdirin.

Sonrasında hava gözlem ve tahminlerini görmek için tıklayın.

Haritayı değiştirmek için: yaklaştırmak için siyah artı işaretli yeşil düğmeye ve uzaklaştırmak için de eksi işaretli düğmeye hızla tıklayın; bitişik haritalar için yeşil okları kullanın.


METAR-TAF: